Main page
METAR-TAF:

METAR-TAF

Airports :

Lengpui Airport

Aizawl, India

latitude: 23-50-18N, longitude: 92-37-13E, elevation: 405 m

Current weather observation

The report was made 13 hours and 0 minutes ago, at 10:00 UTC
Wind 2 kt from the North/Northeast
Temperature 23°C
Humidity 89%
Pressure 1015 hPa
Visibility: 5000 m
Few clouds at a height of 1800 ft
Broken clouds at a height of 10000 ft
mist

METAR: VELP 041000Z 03002KT 5000 BR FEW018 BKN100 23/21 Q1015 NOSIG

Time: 04:30 (23:00 UTC)

Forecast

The report was made 15 hours and 0 minutes ago, at 08:00 UTC
Forecast valid from 04 at 09 UTC to 04 at 18 UTC
Wind 4 kt from the North/Northeast
Visibility: 5000 m
Scattered clouds at a height of 1800 ft
Broken clouds at a height of 10000 ft
haze
Becoming
from 04 at 13 UTC to 04 at 15 UTC
Visibility: 3000 m
mist

TAF: VELP 040800Z 0409/0418 03004KT 5000 HZ SCT018 BKN100 BECMG 0413/0415 3000 BR

Weather observations and forecasts of more than 4000 airports (METAR and TAF reports).

The available stations are represented by yellow and red dots on the map.

Hover mouse over dot to see the name of the station.

Then click to see weather observations and forecasts.

To change the map : click on the green buttons with a black cross to zoom in, on the green button with a dash to zoom out, or on the green arrows for adjacent maps.


METAR-TAF: